Aviation Digital Data Service (ADDS)

Output produced by METARs form (0438 UTC 01 November 2014)
found at http://www.aviationweather.gov/adds/metars/
 
SEGU 010400Z 23011KT 9999 FEW026 23/19 Q1012 NOSIG RMK A2989
SEGU 312225Z 0100/0124 21010KT 9999 SCT020 SCT090 
     FM011100 24006KT 9999 BKN020 SCT090 
     FM011600 16005KT 9999 SCT020 SCT100 TX31/0119Z TN22/0110Z
       
SEMT 010400Z 19008KT 9999 BKN023 23/20 Q1013
SEMT 312225Z 0100/0124 19010KT 9999 SCT023 
     FM010600 18008KT 9999 BKN020 
     FM011400 19008KT 9999 SCT020 SCT080 
     FM011800 22012KT 9999 FEW023 TX30/0119Z TN22/0110Z